In Rescue
 
Open Full Screen Window  High Contrast Mode
Wind Gusting 00 knots
04
June 22, 2024 9:46 PM EDT
Weather Information
Wind Direction
  230 °
Wind Speed
  04 kt (5 mph)
Wind Gust
  00 kt (0 mph)
Altimeter
29.78 in
Visibility
10 SM
Temperature
29° C
84° F
Dewpoint
11° C
52° F
Humidity
33%
Sky Condition
Clear
VFR

METAR KONZ 230146Z AUTO 23004KT 10SM CLR 29/11 A2978 RMK AO2 T02900107

FAA Disclaimer: The data displayed is for advisory purposes only and is not to be used for flight planning or operations.